YMHB Airport Information

Runway Information
Runway 12 Length 7385 ft width 148 ft
Elevation 12 ft Threshold 0 ft Heading 135
Runway 30 Length 7385 ft Width 148 ft
Elevation 13 ft Threshold 0 ft Heading 315
Airport Frequencies
Type ATIS Name ATIS Frequency 112.7 MHZ
Type CTAF Name CTAF Frequency 118.1 MHZ
Type FSS Name MELBOURNE Frequency 125.55 MHZ
Type TWR Name TWR Frequency 118.1 MHZ
Airport Navaids
Type VOR-DME Name Hobart Frequency 112700 KHZ
Type NDB Name Hobart Frequency 362 KHZ
Type NDB Name Tea Tree Frequency 374 KHZ
Airport Weather Information & NOTAM
ADDS - METARS form results

(0556 UTC 16 October 2021)
Data provider http://aviationweather.gov/metar/data/
 
METAR text: YMHB 160531Z 20020G30KT 9999 -SHRA SCT032 BKN044 13/05 Q1001
Conditions at: YMHB (HOBART/TASMANIA , AU) observed 0531 UTC 16 October 2021
Temperature: 13.0°C (55°F)
Dewpoint: 5.0°C (41°F) [RH = 58%]
Pressure (altimeter): 29.56 inches Hg (1001.0 mb)
Winds: from the SSW (200 degrees) at 23 MPH (20 knots; 10.3 m/s)
gusting to 34 MPH (30 knots; 15.4 m/s)
Visibility: 6 or more miles (10+ km)
Ceiling: 4400 feet AGL
Clouds: scattered clouds at 3200 feet AGL
broken clouds at 4400 feet AGL
Weather: -SHRA  (light rain showers)

METAR text: YMHB 160530Z 20021KT 9999 -SHRA SCT032 BKN044 13/06 Q1001 RF00.0/000.8
Conditions at: YMHB (HOBART/TASMANIA , AU) observed 0530 UTC 16 October 2021
Temperature: 13.0°C (55°F)
Dewpoint: 6.0°C (43°F) [RH = 62%]
Pressure (altimeter): 29.56 inches Hg (1001.0 mb)
Winds: from the SSW (200 degrees) at 24 MPH (21 knots; 10.8 m/s)
Visibility: 6 or more miles (10+ km)
Ceiling: 4400 feet AGL
Clouds: scattered clouds at 3200 feet AGL
broken clouds at 4400 feet AGL
Weather: -SHRA  (light rain showers)

METAR text: YMHB 160507Z 20017G27KT 9999 FEW034 BKN044 13/07 Q1001 RF00/0/000/8
Conditions at: YMHB (HOBART/TASMANIA , AU) observed 0507 UTC 16 October 2021
Temperature: 13.0°C (55°F)
Dewpoint: 7.0°C (45°F) [RH = 67%]
Pressure (altimeter): 29.56 inches Hg (1001.0 mb)
Winds: from the SSW (200 degrees) at 20 MPH (17 knots; 8.7 m/s)
gusting to 31 MPH (27 knots; 13.9 m/s)
Visibility: 6 or more miles (10+ km)
Ceiling: 4400 feet AGL
Clouds: few clouds at 3400 feet AGL
broken clouds at 4400 feet AGL
Weather: no significant weather observed at this time

METAR text: YMHB 160500Z 20019KT 9999 FEW032 BKN042 13/07 Q1001 RF00.0/000.8
Conditions at: YMHB (HOBART/TASMANIA , AU) observed 0500 UTC 16 October 2021
Temperature: 13.0°C (55°F)
Dewpoint: 7.0°C (45°F) [RH = 67%]
Pressure (altimeter): 29.56 inches Hg (1001.0 mb)
Winds: from the SSW (200 degrees) at 22 MPH (19 knots; 9.8 m/s)
Visibility: 6 or more miles (10+ km)
Ceiling: 4200 feet AGL
Clouds: few clouds at 3200 feet AGL
broken clouds at 4200 feet AGL
Weather: no significant weather observed at this time

Forecast for: YMHB (HOBART/TASMANIA , AU)
Text: TAF YMHB 160502Z 1606/1706 21020G30KT 9999 SCT035
Forecast period: 0600 to 0900 UTC 16 October 2021
Forecast type: FROM: standard forecast or significant change
Winds: from the SSW (210 degrees) at 23 MPH (20 knots; 10.3 m/s)
gusting to 34 MPH (30 knots; 15.4 m/s)
Visibility: 6 or more miles (10+ km)
Ceiling: at least 12,000 feet AGL
Clouds: scattered clouds at 3500 feet AGL
Weather: no significant weather forecast for this period
Text: FM160900 23014KT 9999 BKN040
Forecast period: 0900 to 1400 UTC 16 October 2021
Forecast type: FROM: standard forecast or significant change
Winds: from the SW (230 degrees) at 16 MPH (14 knots; 7.2 m/s)
Visibility: 6 or more miles (10+ km)
Ceiling: 4000 feet AGL
Clouds: broken clouds at 4000 feet AGL
Weather: no significant weather forecast for this period
Text: FM161400 32008KT 9999 SCT045
Forecast period: 1400 to 2200 UTC 16 October 2021
Forecast type: FROM: standard forecast or significant change
Winds: from the NW (320 degrees) at 9 MPH (8 knots; 4.1 m/s)
Visibility: 6 or more miles (10+ km)
Ceiling: at least 12,000 feet AGL
Clouds: scattered clouds at 4500 feet AGL
Weather: no significant weather forecast for this period
Text: FM162200 29013KT 9999 FEW040
Forecast period: 2200 UTC 16 October 2021 to 0600 UTC 17 October 2021
Forecast type: FROM: standard forecast or significant change
Winds: from the WNW (290 degrees) at 15 MPH (13 knots; 6.7 m/s)
Visibility: 6 or more miles (10+ km)
Ceiling: at least 12,000 feet AGL
Clouds: few clouds at 4000 feet AGL
Weather: no significant weather forecast for this period